Latest Weather Observations for Cape Bruny AWS

IDT60801

Issued at 2:31 am EDT Saturday 20 December 2014 (issued every 30 minutes, with the page automatically refreshed every 10 minutes)

About weather observations | Map of weather stations | Latest weather observations for TAS | Other Formats
Station Details ID: 094198 Name: CAPE BRUNY (CAPE BRUNY) Lat: -43.49 Lon: 147.14 Height: 59.7 m
Data from the previous 72 hours. | See also: Recent months at Cape Bruny AWS
Date/Time
EDT
Temp
°C
App
Temp
°C
Dew
Point
Rel
Hum
%
Delta-T
°C
Wind Press
QNH
hPa
Press
MSL
hPa
Rain
since 9 am
mm
Dir
 
Spd
km/h
Gust
km/h
Spd
kts
Gust
kts
20/02:30am 12.5 8.3 7.4 71 2.5 NNW 19 26 10 14 1009.8 1009.8 0.4
20/02:00am 12.4 8.6 7.5 72 2.4 N 17 26 9 14 1010.3 1010.3 0.4
20/01:30am 12.2 8.3 7.1 71 2.5 N 17 22 9 12 1010.7 1010.7 0.4
20/01:00am 12.2 8.6 6.9 70 2.5 N 15 24 8 13 1011.2 1011.2 0.4
20/12:30am 12.2 7.6 6.5 68 2.7 NNW 20 28 11 15 1011.5 1011.5 0.4
20/12:00am 12.1 7.4 6.2 67 2.8 NNW 20 26 11 14 1011.9 1011.9 0.4
 
Date/Time
EDT
Temp
°C
App
Temp
°C
Dew
Point
Rel
Hum
%
Delta-T
°C
Wind Press
QNH
hPa
Press
MSL
hPa
Rain
since 9 am
mm
Dir
 
Spd
km/h
Gust
km/h
Spd
kts
Gust
kts
19/11:30pm 12.3 7.8 5.9 65 3.0 NNW 19 26 10 14 1012.4 1012.4 0.4
19/11:00pm 12.5 7.6 5.2 61 3.4 NW 20 26 11 14 1012.6 1012.6 0.4
19/10:30pm 12.7 6.8 5.6 62 3.3 NW 26 35 14 19 1012.9 1012.9 0.4
19/10:00pm 12.8 6.4 5.2 60 3.5 NW 28 41 15 22 1013.1 1013.1 0.4
19/09:30pm 12.9 5.7 4.8 58 3.7 NW 32 39 17 21 1013.1 1013.1 0.4
19/09:00pm 13.0 5.7 4.4 56 3.9 NW 32 41 17 22 1013.0 1013.0 0.4
19/08:30pm 13.5 6.9 5.9 60 3.6 WNW 30 35 16 19 1012.9 1012.9 0.4
19/08:00pm 13.7 6.8 4.8 55 4.1 WNW 30 41 16 22 1012.7 1012.7 0.4
19/07:30pm 13.7 5.9 5.1 56 4.0 WNW 35 46 19 25 1012.5 1012.5 0.4
19/07:00pm 13.7 7.0 5.8 59 3.7 WNW 30 41 16 22 1012.5 1012.5 0.4
19/06:30pm 13.7 6.6 5.6 58 3.8 WNW 32 39 17 21 1012.5 1012.5 0.4
19/06:00pm 13.9 5.5 5.5 57 4.0 WNW 39 52 21 28 1012.4 1012.4 0.4
19/05:39pm 14.0 5.6 5.4 56 4.1 WNW 39 57 21 31 1012.1 1012.1 0.4
19/05:30pm 14.3 6.8 4.6 52 4.5 WNW 33 41 18 22 1012.1 1012.1 0.4
19/05:00pm 15.0 7.7 4.7 50 4.8 W 32 44 17 24 1012.3 1012.3 0.4
19/04:30pm 15.1 7.7 5.0 51 4.8 WSW 33 43 18 23 1012.3 1012.3 0.4
19/04:00pm 15.2 7.6 5.7 53 4.6 WSW 35 43 19 23 1012.1 1012.1 0.4
19/03:30pm 16.1 8.1 5.7 50 5.0 WSW 37 48 20 26 1011.9 1011.9 0.4
19/03:00pm 15.1 7.5 5.6 53 4.5 WSW 35 46 19 25 1011.9 1011.9 0.4
19/02:30pm 14.9 7.8 5.7 54 4.4 WSW 32 41 17 22 1011.9 1011.9 0.4
19/02:00pm 14.1 6.3 6.5 60 3.7 WSW 37 48 20 26 1011.7 1011.7 0.4
19/01:30pm 15.1 8.8 5.9 54 4.4 WSW 28 37 15 20 1011.7 1011.7 0.4
19/01:00pm 14.8 7.8 5.9 55 4.3 WSW 32 41 17 22 1011.8 1011.8 0.4
19/12:30pm 15.2 8.0 5.7 53 4.5 WSW 33 44 18 24 1011.7 1011.7 0.4
19/12:00pm 13.1 5.5 5.8 61 3.4 WSW 35 44 19 24 1011.8 1011.8 0.4
19/11:30am 13.5 8.7 5.7 59 3.7 W 20 43 11 23 1011.9 1011.9 0.4
19/11:00am 12.4 7.4 8.1 75 2.1 WSW 24 30 13 16 1012.1 1012.1 0.4
19/10:45am 10.7 4.4 7.6 81 1.5 W 30 48 16 26 1012.1 1012.1 0.4
19/10:30am 10.3 3.6 7.4 82 1.4 W 32 41 17 22 1012.1 1012.1 0.2
19/10:10am 12.2 5.8 7.1 71 2.5 WSW 30 50 16 27 1012.0 1012.0 0.0
19/10:00am 13.5 8.0 5.9 60 3.6 WSW 24 30 13 16 1011.9 1011.9 0.0
19/09:30am 13.0 8.0 6.6 65 3.1 WSW 22 30 12 16 1012.0 1012.0 0.0
19/09:00am 10.7 3.6 5.5 70 2.4 WSW 32 39 17 21 1011.9 1011.9 -
19/08:30am 11.3 6.2 5.8 69 2.6 W 22 30 12 16 1011.6 1011.6 -
19/08:00am 10.9 5.1 6.1 72 2.2 W 26 35 14 19 1011.0 1011.0 -
19/07:30am 9.4 2.2 5.9 79 1.6 W 33 46 18 25 1010.5 1010.5 -
19/07:00am 9.6 2.9 5.8 77 1.7 W 30 39 16 21 1010.3 1010.3 -
19/06:30am 9.7 4.3 6.2 79 1.6 W 24 32 13 17 1009.8 1009.8 -
19/06:00am 9.7 2.6 6.4 80 1.5 W 33 43 18 23 1009.5 1009.5 -
19/05:30am 9.6 3.6 7.0 84 1.2 W 28 32 15 17 1008.9 1008.8 -
19/05:00am 8.9 3.5 6.5 85 1.1 W 24 33 13 18 1008.7 1008.6 -
19/04:50am 9.0 2.2 6.8 86 1.0 WSW 32 50 17 27 1008.5 1008.4 -
19/04:00am 9.7 1.5 6.6 81 1.5 W 39 54 21 29 1007.8 1007.7 2.4
19/03:53am 9.8 2.9 6.3 79 1.6 W 32 54 17 29 1007.8 1007.7 2.4
19/03:30am 9.7 4.4 7.0 83 1.3 WNW 24 35 13 19 1007.8 1007.7 2.4
19/03:00am 10.1 3.8 7.3 83 1.3 W 30 37 16 20 1007.7 1007.6 2.4
19/02:30am 10.1 4.6 7.5 84 1.2 W 26 33 14 18 1007.6 1007.5 2.4
19/02:00am 10.1 3.9 7.7 85 1.2 W 30 39 16 21 1007.4 1007.3 2.4
19/01:30am 9.4 3.1 7.3 87 1.0 W 30 37 16 20 1007.3 1007.2 2.4
19/01:20am 9.5 1.5 7.3 86 1.0 W 39 57 21 31 1007.2 1007.1 2.2
19/01:00am 10.0 1.9 7.1 82 1.4 W 39 52 21 28 1006.9 1006.8 1.0
19/12:53am 10.1 3.1 6.8 80 1.6 W 33 52 18 28 1006.8 1006.7 1.0
19/12:30am 10.2 4.1 6.7 79 1.6 W 28 39 15 21 1006.6 1006.5 1.0
19/12:00am 9.7 2.5 7.5 86 1.1 WSW 35 48 19 26 1006.6 1006.5 1.0
 
Date/Time
EDT
Temp
°C
App
Temp
°C
Dew
Point
Rel
Hum
%
Delta-T
°C
Wind Press
QNH
hPa
Press
MSL
hPa
Rain
since 9 am
mm
Dir
 
Spd
km/h
Gust
km/h
Spd
kts
Gust
kts
18/11:30pm 11.2 3.9 7.1 76 2.0 WSW 35 50 19 27 1006.2 1006.1 0.4
18/11:09pm 10.7 2.0 6.1 73 2.1 WSW 41 59 22 32 1005.9 1005.8 0.4
18/11:00pm 11.0 3.2 6.7 75 2.0 WSW 37 46 20 25 1005.8 1005.7 0.4
18/10:37pm 11.5 3.3 6.6 72 2.3 WSW 39 57 21 31 1005.8 1005.7 0.4
18/10:30pm 12.2 4.1 7.1 71 2.5 WSW 39 48 21 26 1005.8 1005.7 0.4
18/10:00pm 12.6 4.9 5.3 61 3.4 W 35 46 19 25 1005.3 1005.2 0.4
18/09:30pm 12.7 4.7 5.6 62 3.3 W 37 46 20 25 1004.5 1004.4 0.4
18/09:00pm 13.0 4.4 4.7 57 3.8 W 39 50 21 27 1004.0 1003.9 0.4
18/08:30pm 13.2 6.0 6.1 62 3.4 W 33 46 18 25 1003.4 1003.3 0.4
18/08:10pm 13.8 6.4 6.9 63 3.4 W 35 48 19 26 1003.2 1003.1 0.4
18/08:00pm 14.0 6.2 6.8 62 3.5 WNW 37 46 20 25 1002.9 1002.8 0.4
18/07:36pm 13.6 4.9 6.2 61 3.5 WNW 41 59 22 32 1002.4 1002.3 0.4
18/07:30pm 14.0 4.5 6.8 62 3.5 WNW 46 61 25 33 1002.2 1002.1 0.4
18/07:13pm 14.7 5.8 7.0 60 3.8 WNW 43 61 23 33 1001.7 1001.7 0.4
18/07:00pm 15.0 5.8 6.3 56 4.2 WNW 44 56 24 30 1001.5 1001.5 0.4
18/06:30pm 15.0 6.3 7.8 62 3.6 W 43 50 23 27 1001.0 1001.0 0.4
18/06:00pm 15.4 7.5 7.7 60 3.9 W 39 46 21 25 1000.7 1000.7 0.4
18/05:41pm 16.0 10.3 8.2 60 4.0 WNW 28 46 15 25 1000.5 1000.5 0.4
18/05:30pm 15.8 11.8 8.3 61 3.8 WNW 19 24 10 13 1000.5 1000.5 0.4
18/05:00pm 15.5 10.9 8.3 62 3.7 W 22 26 12 14 1000.3 1000.3 0.4
18/04:30pm 14.8 8.7 8.3 65 3.3 W 30 43 16 23 1000.0 1000.0 0.4
18/04:00pm 13.8 9.6 9.8 77 2.1 WNW 22 30 12 16 999.9 999.9 0.4
18/03:30pm 14.3 6.3 10.3 77 2.1 WNW 43 67 23 36 999.6 999.6 0.2
18/03:03pm 14.2 7.3 10.2 77 2.1 WNW 37 56 20 30 999.5 999.5 0.2
18/03:00pm 14.3 7.7 9.9 75 2.3 WNW 35 56 19 30 999.5 999.5 0.2
18/02:55pm 15.1 10.4 9.2 68 3.0 WNW 24 56 13 30 999.3 999.3 0.0
18/02:30pm 19.5 16.8 7.3 45 6.2 NNE 11 17 6 9 998.5 998.5 0.0
18/02:00pm 19.6 15.1 6.3 42 6.7 NE 19 26 10 14 998.9 998.9 0.0
18/01:30pm 19.8 15.5 7.2 44 6.4 NNE 19 30 10 16 999.3 999.3 0.0
18/01:00pm 19.4 15.3 6.2 42 6.6 NNW 17 26 9 14 999.6 999.6 0.0
18/12:30pm 18.6 13.7 5.1 41 6.5 NNW 20 30 11 16 1000.0 1000.0 0.0
18/12:00pm 18.6 14.0 5.5 42 6.4 NW 19 26 10 14 1000.3 1000.3 0.0
18/11:30am 18.0 14.2 5.6 44 6.0 N 15 26 8 14 1000.7 1000.7 0.0
18/11:00am 18.3 13.3 4.5 40 6.6 NNW 20 30 11 16 1000.9 1000.9 0.0
18/10:30am 19.7 15.0 6.1 41 6.8 NNW 20 33 11 18 1001.0 1001.0 0.0
18/10:00am 17.6 11.6 5.5 45 5.9 N 26 35 14 19 1001.5 1001.5 0.0
18/09:30am 16.5 11.9 5.5 48 5.3 NNE 19 30 10 16 1002.0 1001.9 0.0
18/09:00am 16.2 11.3 4.9 47 5.4 N 20 32 11 17 1002.3 1002.2 0.2
18/08:30am 14.5 11.1 7.5 63 3.5 NNE 15 22 8 12 1002.5 1002.4 0.2
18/08:00am 14.6 10.8 7.6 63 3.5 NE 17 26 9 14 1002.5 1002.4 0.2
18/07:30am 13.6 9.3 7.2 65 3.1 NNE 19 26 10 14 1002.6 1002.5 0.2
18/07:00am 13.1 9.8 6.2 63 3.3 N 13 20 7 11 1002.7 1002.6 0.2
18/06:30am 11.4 8.6 7.1 75 2.1 NNE 11 17 6 9 1002.5 1002.4 0.2
18/06:00am 10.5 7.3 5.3 70 2.4 N 11 17 6 9 1002.8 1002.7 0.2
18/05:30am 10.3 6.5 5.7 73 2.1 N 15 22 8 12 1002.6 1002.5 0.2
18/05:00am 10.2 7.1 5.6 73 2.1 NNE 11 17 6 9 1002.6 1002.5 0.2
18/04:30am 10.3 6.8 5.3 71 2.3 NNE 13 19 7 10 1002.8 1002.7 0.2
18/04:00am 10.1 6.7 5.7 74 2.0 NNE 13 17 7 9 1002.9 1002.8 0.2
18/03:30am 9.7 5.9 5.9 77 1.8 N 15 19 8 10 1003.1 1003.0 0.2
18/03:00am 10.2 7.5 5.8 74 2.0 NNE 9 11 5 6 1003.3 1003.2 0.2
18/02:30am 10.7 7.3 6.1 73 2.1 N 13 15 7 8 1003.5 1003.4 0.2
18/02:00am 10.3 6.1 4.0 65 2.8 N 15 17 8 9 1003.6 1003.5 0.2
18/01:30am 11.3 6.7 3.8 60 3.3 NNW 17 20 9 11 1004.0 1003.9 0.2
18/01:00am 11.7 6.7 3.7 58 3.6 NNW 19 30 10 16 1004.2 1004.1 0.2
18/12:30am 12.0 7.5 4.0 58 3.6 NNW 17 24 9 13 1004.5 1004.4 0.2
18/12:00am 11.3 7.2 4.1 61 3.2 NNW 15 20 8 11 1004.7 1004.6 0.2
 
Date/Time
EDT
Temp
°C
App
Temp
°C
Dew
Point
Rel
Hum
%
Delta-T
°C
Wind Press
QNH
hPa
Press
MSL
hPa
Rain
since 9 am
mm
Dir
 
Spd
km/h
Gust
km/h
Spd
kts
Gust
kts
17/11:30pm 11.3 8.8 6.6 73 2.2 NNE 9 15 5 8 1004.9 1004.8 0.2
17/11:00pm 11.0 8.6 5.3 68 2.6 NE 7 11 4 6 1005.0 1004.9 0.2
17/10:30pm 11.8 8.5 4.8 62 3.2 N 11 19 6 10 1005.6 1005.5 0.2
17/10:00pm 12.3 8.4 5.5 63 3.2 N 15 20 8 11 1005.7 1005.6 0.2
17/09:30pm 12.4 8.7 4.6 59 3.6 N 13 17 7 9 1005.7 1005.6 0.2
17/09:00pm 13.4 7.7 5.1 57 3.9 NW 24 33 13 18 1005.1 1005.0 0.2
17/08:30pm 13.3 6.8 4.5 55 4.0 NW 28 33 15 18 1004.9 1004.8 0.2
17/08:00pm 14.0 7.9 4.9 54 4.3 NW 26 39 14 21 1004.9 1004.8 0.2
17/07:30pm 13.8 8.5 4.9 55 4.1 NW 22 28 12 15 1004.8 1004.7 0.2
17/07:00pm 14.1 6.1 5.5 56 4.1 WNW 37 44 20 24 1004.2 1004.1 0.2
17/06:30pm 14.2 5.1 6.1 58 3.9 W 43 50 23 27 1003.8 1003.7 0.2
17/06:10pm 14.3 4.8 6.9 61 3.6 W 46 65 25 35 1003.5 1003.4 0.2
17/06:01pm 14.3 6.0 5.9 57 4.0 W 39 65 21 35 1003.4 1003.3 0.2
17/06:00pm 14.5 7.2 5.6 55 4.3 W 33 65 18 35 1003.4 1003.3 0.2
17/05:59pm 14.9 8.1 5.1 52 4.6 W 30 56 16 30 1003.5 1003.4 0.2
17/05:57pm 15.0 9.0 5.5 53 4.5 W 26 48 14 26 1003.6 1003.5 0.2
17/05:30pm 15.0 11.0 6.8 58 4.0 SW 17 26 9 14 1003.7 1003.6 0.2
17/05:00pm 14.6 9.0 7.2 61 3.7 WSW 26 37 14 20 1003.6 1003.5 0.2
17/04:30pm 14.4 7.2 6.0 57 4.0 WSW 33 44 18 24 1003.6 1003.5 0.2
17/04:00pm 15.4 8.4 6.1 54 4.5 WSW 32 41 17 22 1003.4 1003.3 0.2
17/03:30pm 14.8 8.9 7.6 62 3.6 WSW 28 39 15 21 1003.5 1003.4 0.2
17/03:00pm 17.3 11.9 6.2 48 5.5 WSW 24 35 13 19 1003.5 1003.4 0.2
17/02:30pm 17.1 11.2 6.0 48 5.4 WSW 26 35 14 19 1003.2 1003.1 0.2
17/02:00pm 15.3 9.6 4.7 49 5.0 WSW 24 32 13 17 1003.3 1003.2 0.2
17/01:30pm 15.4 11.2 5.9 53 4.6 WSW 17 24 9 13 1003.6 1003.5 0.2
17/01:00pm 14.9 10.0 4.0 48 5.0 W 19 24 10 13 1003.4 1003.3 0.2
17/12:30pm 16.1 10.4 5.1 48 5.2 WNW 24 32 13 17 1003.1 1003.0 0.0
17/12:00pm 12.1 5.0 6.2 67 2.8 W 33 46 18 25 1002.9 1002.8 0.0
17/11:51am 12.4 5.9 4.9 60 3.5 WNW 28 46 15 25 1002.7 1002.6 0.0
17/11:30am 13.0 7.5 6.1 63 3.3 WNW 24 35 13 19 1002.4 1002.3 0.0
17/11:15am 11.9 4.1 5.1 63 3.1 WNW 35 46 19 25 1002.2 1002.1 0.0
17/11:00am 13.5 4.8 5.9 60 3.6 W 41 54 22 29 1001.9 1001.8 0.0
17/10:30am 10.7 2.4 6.1 73 2.1 WSW 39 63 21 34 1001.6 1001.6 0.0
17/10:25am 12.3 4.7 5.7 64 3.1 W 35 59 19 32 1001.4 1001.4 0.0
17/10:00am 12.3 3.2 5.7 64 3.1 W 43 52 23 28 1001.1 1001.1 0.0
17/09:45am 12.0 3.8 5.0 62 3.2 W 37 59 20 32 1001.1 1001.1 0.0
17/09:34am 12.6 6.0 6.0 64 3.1 WSW 30 44 16 24 1000.9 1000.9 0.0
17/09:30am 11.6 4.7 6.3 70 2.5 WSW 32 48 17 26 1001.0 1001.0 0.0
17/09:00am 12.1 4.8 5.3 63 3.2 WNW 33 46 18 25 1000.6 1000.6 10.2
17/08:30am 10.9 2.6 6.3 73 2.2 WNW 39 48 21 26 1000.2 1000.2 10.2
17/08:29am 10.7 2.4 5.9 72 2.2 W 39 50 21 27 1000.2 1000.2 10.2
17/08:00am 9.6 0.2 5.4 75 1.9 W 44 63 24 34 999.6 999.6 10.2
17/07:54am 9.4 0.7 6.1 80 1.5 WSW 41 63 22 34 999.6 999.6 10.2
17/07:30am 10.9 2.9 5.7 70 2.4 W 37 46 20 25 999.1 999.1 9.8
17/07:00am 9.8 1.5 6.3 79 1.6 W 39 50 21 27 998.3 998.3 9.8
17/06:34am 10.0 1.6 5.4 73 2.1 W 39 59 21 32 998.0 998.0 9.8
17/06:30am 10.7 2.7 5.5 70 2.4 W 37 46 20 25 997.9 997.9 9.8
17/06:00am 10.1 0.3 5.1 71 2.3 W 46 54 25 29 997.2 997.2 9.8
17/05:56am 10.4 0.7 5.6 72 2.2 W 46 56 25 30 997.2 997.2 9.8
17/05:34am 10.2 0.0 5.4 72 2.2 W 48 72 26 39 996.8 996.8 9.8
17/05:31am 10.3 1.1 5.5 72 2.2 W 43 61 23 33 996.7 996.7 9.6
17/05:30am 10.2 1.3 5.2 71 2.3 W 41 57 22 31 996.8 996.8 9.6
17/05:00am 9.5 -0.8 4.5 71 2.2 W 48 67 26 36 996.0 996.0 9.6
17/04:30am 11.0 -1.0 4.0 62 3.1 W 56 76 30 41 995.1 995.1 9.6
17/04:03am 11.3 -0.4 5.4 67 2.7 W 56 74 30 40 994.4 994.3 9.6
17/04:00am 11.3 0.4 5.6 68 2.7 W 52 67 28 36 994.4 994.3 9.6
17/03:30am 11.3 -1.1 4.7 64 3.0 W 59 78 32 42 993.6 993.5 9.6
17/03:00am 10.9 -0.4 5.4 69 2.6 W 54 72 29 39 993.2 993.1 9.6
17/02:51am 10.5 -1.3 5.7 72 2.2 W 57 74 31 40 993.2 993.1 9.6
17/02:47am 10.4 -2.7 6.7 78 1.7 W 65 87 35 47 993.2 993.1 9.6
17/02:37am 9.9 -5.2 5.5 74 2.0 W 74 96 40 52 992.4 992.3 9.6
17/02:32am 10.6 -1.9 6.0 73 2.1 W 61 89 33 48 992.3 992.2 9.4

Other Formats:

Comma delimited format used in spreadsheet applications
http://www.bom.gov.au/fwo/IDT60801/IDT60801.95967.axf

JavaScript Object Notation format (JSON) in row-major order
http://www.bom.gov.au/fwo/IDT60801/IDT60801.95967.json